createdAt,value
2019-01-25T00:00:22.305Z,-1.97
2019-01-25T00:02:52.590Z,-2.11
2019-01-25T00:05:25.934Z,-2.10
2019-01-25T00:07:56.239Z,-2.06
2019-01-25T00:10:26.503Z,-1.98
2019-01-25T00:12:57.043Z,-1.99
2019-01-25T00:15:27.645Z,-1.94
2019-01-25T00:18:02.373Z,-1.92
2019-01-25T00:20:32.698Z,-1.93
2019-01-25T00:23:03.456Z,-1.98
2019-01-25T00:25:36.151Z,-2.01
2019-01-25T00:28:09.970Z,-2.00
2019-01-25T00:30:40.547Z,-2.02
2019-01-25T00:33:11.089Z,-1.97
2019-01-25T00:35:41.543Z,-1.93
2019-01-25T00:38:11.953Z,-1.94
2019-01-25T00:40:44.391Z,-1.96
2019-01-25T00:43:14.724Z,-1.94
2019-01-25T00:45:45.408Z,-1.91
2019-01-25T00:48:17.044Z,-1.97
2019-01-25T00:50:47.493Z,-1.98
2019-01-25T00:53:33.390Z,-1.98
2019-01-25T00:56:04.389Z,-1.96
2019-01-25T00:58:34.727Z,-1.92
2019-01-25T01:01:05.499Z,-1.91
2019-01-25T01:03:35.961Z,-1.90
2019-01-25T01:06:06.274Z,-1.94
2019-01-25T01:08:36.583Z,-1.99
2019-01-25T01:11:07.052Z,-2.05
2019-01-25T01:13:37.775Z,-2.06
2019-01-25T01:16:08.065Z,-2.10
2019-01-25T01:18:38.395Z,-2.15
2019-01-25T01:21:08.768Z,-2.21
2019-01-25T01:23:39.209Z,-2.18
2019-01-25T01:26:10.451Z,-2.22
2019-01-25T01:28:40.738Z,-2.18
2019-01-25T01:31:11.106Z,-2.18
2019-01-25T01:33:41.534Z,-2.10
2019-01-25T01:36:11.930Z,-2.05
2019-01-25T01:38:42.219Z,-2.04
2019-01-25T01:41:13.486Z,-2.05
2019-01-25T01:43:43.808Z,-2.07
2019-01-25T01:46:14.131Z,-2.12
2019-01-25T01:48:44.578Z,-2.11
2019-01-25T01:51:14.897Z,-2.17
2019-01-25T01:53:46.653Z,-2.19
2019-01-25T01:56:16.976Z,-2.11
2019-01-25T01:58:47.269Z,-2.05
2019-01-25T02:01:17.523Z,-2.03
2019-01-25T02:03:47.804Z,-1.99
2019-01-25T02:06:18.023Z,-2.05
2019-01-25T02:08:48.265Z,-2.02
2019-01-25T02:11:19.008Z,-1.96
2019-01-25T02:13:49.270Z,-1.93
2019-01-25T02:16:19.498Z,-1.90
2019-01-25T02:18:49.755Z,-1.91
2019-01-25T02:21:20.016Z,-1.95
2019-01-25T02:23:50.239Z,-1.97
2019-01-25T02:26:20.563Z,-2.03
2019-01-25T02:28:51.768Z,-2.11
2019-01-25T02:31:22.423Z,-2.17
2019-01-25T02:34:00.616Z,-2.16
2019-01-25T02:36:30.983Z,-2.17
2019-01-25T02:39:01.581Z,-2.18
2019-01-25T02:41:31.930Z,-2.22
2019-01-25T02:44:02.159Z,-2.20
2019-01-25T02:46:32.708Z,-2.13
2019-01-25T02:49:03.613Z,-2.08
2019-01-25T02:51:33.892Z,-2.05
2019-01-25T02:54:04.239Z,-2.03
2019-01-25T02:56:34.613Z,-2.03
2019-01-25T02:59:05.013Z,-2.01
2019-01-25T03:01:35.643Z,-2.04
2019-01-25T03:04:05.957Z,-2.03
2019-01-25T03:06:36.334Z,-2.03
2019-01-25T03:09:09.665Z,-2.07
2019-01-25T03:11:40.048Z,-2.07
2019-01-25T03:14:10.260Z,-2.13
2019-01-25T03:16:40.683Z,-2.16
2019-01-25T03:19:11.172Z,-2.20
2019-01-25T03:21:41.423Z,-2.33
2019-01-25T03:24:12.715Z,-2.42
2019-01-25T03:26:43.155Z,-2.32
2019-01-25T03:29:13.387Z,-2.24
2019-01-25T03:31:43.620Z,-2.15
2019-01-25T03:34:13.914Z,-2.12
2019-01-25T03:36:44.219Z,-2.12
2019-01-25T03:39:14.454Z,-2.05
2019-01-25T03:41:44.689Z,-2.02
2019-01-25T03:44:15.208Z,-2.03
2019-01-25T03:46:45.466Z,-2.02
2019-01-25T03:49:16.461Z,-2.04
2019-01-25T03:51:46.835Z,-2.07
2019-01-25T03:54:17.235Z,-2.15
2019-01-25T03:56:48.363Z,-2.13
2019-01-25T03:59:18.606Z,-2.11
2019-01-25T04:01:49.304Z,-2.14
2019-01-25T04:04:20.319Z,-2.11
2019-01-25T04:06:50.563Z,-2.10
2019-01-25T04:09:20.813Z,-2.10
2019-01-25T04:11:51.340Z,-2.09
2019-01-25T04:14:21.644Z,-2.14
2019-01-25T04:16:52.224Z,-2.20
2019-01-25T04:19:23.289Z,-2.23
2019-01-25T04:21:53.501Z,-2.14
2019-01-25T04:24:24.645Z,-2.09
2019-01-25T04:26:54.937Z,-2.07
2019-01-25T04:29:25.493Z,-2.09
2019-01-25T04:31:56.853Z,-2.10
2019-01-25T04:34:28.113Z,-2.12
2019-01-25T04:36:58.389Z,-2.17
2019-01-25T04:39:28.975Z,-2.19
2019-01-25T04:41:59.544Z,-2.22
2019-01-25T04:44:31.008Z,-2.21
2019-01-25T04:47:02.944Z,-2.23
2019-01-25T04:49:36.855Z,-2.12
2019-01-25T04:52:17.020Z,-2.05
2019-01-25T04:54:47.720Z,-2.02
2019-01-25T04:57:18.089Z,-2.04
2019-01-25T04:59:49.667Z,-1.98
2019-01-25T05:02:20.163Z,-1.97
2019-01-25T05:04:50.402Z,-2.05
2019-01-25T05:07:20.651Z,-2.15
2019-01-25T05:09:50.923Z,-2.09
2019-01-25T05:12:21.465Z,-2.05
2019-01-25T05:14:51.839Z,-2.05
2019-01-25T05:17:22.218Z,-2.05
2019-01-25T05:19:53.518Z,-1.97
2019-01-25T05:22:23.761Z,-1.96
2019-01-25T05:24:54.002Z,-2.02
2019-01-25T05:27:24.315Z,-2.10
2019-01-25T05:29:57.581Z,-2.14
2019-01-25T05:32:28.115Z,-2.15
2019-01-25T05:34:58.674Z,-2.13
2019-01-25T05:37:28.923Z,-2.12
2019-01-25T05:39:59.140Z,-2.13
2019-01-25T05:42:29.443Z,-2.17
2019-01-25T05:44:59.830Z,-2.20
2019-01-25T05:47:30.267Z,-2.20
2019-01-25T05:50:00.475Z,-2.19
2019-01-25T05:52:30.817Z,-2.20
2019-01-25T05:55:01.053Z,-2.19
2019-01-25T05:57:31.209Z,-2.14
2019-01-25T06:00:03.107Z,-2.14
2019-01-25T06:02:33.390Z,-2.22
2019-01-25T06:05:03.588Z,-2.29
2019-01-25T06:07:34.565Z,-2.29
2019-01-25T06:10:05.632Z,-2.28
2019-01-25T06:12:36.131Z,-2.22
2019-01-25T06:15:07.423Z,-2.21
2019-01-25T06:17:37.622Z,-2.16
2019-01-25T06:20:08.260Z,-2.15
2019-01-25T06:22:38.791Z,-2.14
2019-01-25T06:25:09.164Z,-2.17
2019-01-25T06:27:39.602Z,-2.14
2019-01-25T06:30:12.975Z,-2.11
2019-01-25T06:32:43.192Z,-2.09
2019-01-25T06:35:13.413Z,-2.06
2019-01-25T06:37:43.765Z,-2.03
2019-01-25T06:40:14.490Z,-2.34
2019-01-25T06:42:44.994Z,-2.28
2019-01-25T06:45:15.603Z,-2.28
2019-01-25T06:47:46.009Z,-2.26
2019-01-25T06:50:17.033Z,-2.10
2019-01-25T06:52:47.385Z,-2.12
2019-01-25T06:55:17.772Z,-2.14
2019-01-25T06:57:57.174Z,-2.19
2019-01-25T07:00:28.754Z,-2.27
2019-01-25T07:02:58.980Z,-2.17
2019-01-25T07:05:29.384Z,-2.24
2019-01-25T07:07:59.687Z,-2.17
2019-01-25T07:10:30.228Z,-2.11
2019-01-25T07:13:00.518Z,-2.17
2019-01-25T07:15:30.735Z,-2.21
2019-01-25T07:18:01.303Z,-2.22
2019-01-25T07:20:31.668Z,-2.18
2019-01-25T07:23:01.895Z,-2.28
2019-01-25T07:25:32.229Z,-2.23
2019-01-25T07:28:02.590Z,-2.38
2019-01-25T07:30:32.929Z,-2.45
2019-01-25T07:33:03.944Z,-2.29
2019-01-25T07:35:34.477Z,-2.12
2019-01-25T07:38:04.805Z,-2.02
2019-01-25T07:40:35.943Z,-2.03
2019-01-25T07:43:06.290Z,-2.12
2019-01-25T07:45:36.525Z,-2.11
2019-01-25T07:48:06.932Z,-2.12
2019-01-25T07:50:37.378Z,-2.11
2019-01-25T07:53:07.618Z,-2.02
2019-01-25T07:55:38.276Z,-2.03
2019-01-25T07:58:08.753Z,-1.99
2019-01-25T08:00:39.226Z,-1.96
2019-01-25T08:03:10.448Z,-1.95
2019-01-25T08:05:40.699Z,-2.04
2019-01-25T08:08:10.942Z,-2.02
2019-01-25T08:10:41.395Z,-2.20
2019-01-25T08:13:11.932Z,-2.22
2019-01-25T08:15:42.204Z,-2.27
2019-01-25T08:18:12.683Z,-2.22
2019-01-25T08:20:43.490Z,-2.16
2019-01-25T08:23:13.913Z,-2.10
2019-01-25T08:25:48.979Z,-2.06
2019-01-25T08:28:19.199Z,-2.02
2019-01-25T08:30:49.555Z,-2.07
2019-01-25T08:33:20.656Z,-2.16
2019-01-25T08:35:51.009Z,-2.18
2019-01-25T08:38:21.325Z,-2.18
2019-01-25T08:40:51.643Z,-2.22
2019-01-25T08:43:22.105Z,-2.14
2019-01-25T08:45:52.970Z,-2.12
2019-01-25T08:48:23.490Z,-2.07
2019-01-25T08:50:54.256Z,-2.00
2019-01-25T08:53:24.473Z,-2.05
2019-01-25T08:55:59.297Z,-1.98
2019-01-25T08:58:31.017Z,-2.17
2019-01-25T09:01:01.244Z,-2.22
2019-01-25T09:03:31.777Z,-2.09
2019-01-25T09:06:03.259Z,-1.96
2019-01-25T09:08:33.682Z,-1.85
2019-01-25T09:11:04.846Z,-1.98
2019-01-25T09:13:35.812Z,-1.99
2019-01-25T09:16:06.226Z,-2.15
2019-01-25T09:18:37.677Z,-2.13
2019-01-25T09:21:07.988Z,-1.99
2019-01-25T09:23:38.476Z,-1.94
2019-01-25T09:26:09.483Z,-1.92
2019-01-25T09:28:39.854Z,-1.80
2019-01-25T09:31:10.174Z,-1.71
2019-01-25T09:33:41.530Z,-1.76
2019-01-25T09:36:11.932Z,-1.84
2019-01-25T09:38:42.278Z,-1.91
2019-01-25T09:41:12.722Z,-1.86
2019-01-25T09:43:43.081Z,-1.82
2019-01-25T09:46:13.456Z,-1.93
2019-01-25T09:48:44.155Z,-1.96
2019-01-25T09:51:14.462Z,-2.19
2019-01-25T09:53:44.738Z,-2.18
2019-01-25T09:56:15.214Z,-2.20
2019-01-25T09:58:47.060Z,-2.19
2019-01-25T10:01:17.449Z,-2.16
2019-01-25T10:03:48.776Z,-2.14
2019-01-25T10:06:19.085Z,-2.12
2019-01-25T10:08:49.798Z,-2.09
2019-01-25T10:11:20.328Z,-2.15
2019-01-25T10:13:50.725Z,-2.12
2019-01-25T10:16:21.724Z,-2.15
2019-01-25T10:18:52.301Z,-2.15
2019-01-25T10:21:22.573Z,-2.07
2019-01-25T10:23:53.791Z,-2.00
2019-01-25T10:26:25.062Z,-1.87
2019-01-25T10:28:55.336Z,-1.82
2019-01-25T10:31:26.785Z,-1.80
2019-01-25T10:33:58.270Z,-1.75
2019-01-25T10:36:28.524Z,-1.64
2019-01-25T10:38:58.861Z,-1.56
2019-01-25T10:41:29.772Z,-1.60
2019-01-25T10:44:00.246Z,-1.58
2019-01-25T10:46:31.056Z,-1.56
2019-01-25T10:49:01.518Z,-1.55
2019-01-25T10:51:31.942Z,-1.68
2019-01-25T10:54:02.353Z,-1.64
2019-01-25T10:56:33.198Z,-1.68
2019-01-25T10:59:03.506Z,-1.67
2019-01-25T11:01:33.783Z,-1.66
2019-01-25T11:04:04.258Z,-1.63
2019-01-25T11:06:34.731Z,-1.67
2019-01-25T11:09:08.137Z,-1.67
2019-01-25T11:11:38.508Z,-1.68
2019-01-25T11:14:11.434Z,-1.64
2019-01-25T11:16:41.858Z,-1.49
2019-01-25T11:19:12.911Z,-1.53
2019-01-25T11:21:43.176Z,-1.44
2019-01-25T11:24:13.492Z,-1.49
2019-01-25T11:26:43.821Z,-1.57
2019-01-25T11:29:14.166Z,-1.48
2019-01-25T11:31:44.418Z,-1.36
2019-01-25T11:34:14.733Z,-1.40
2019-01-25T11:36:45.192Z,-1.44
2019-01-25T11:39:15.618Z,-1.47
2019-01-25T11:41:46.206Z,-1.35
2019-01-25T11:44:16.829Z,-1.37
2019-01-25T11:46:47.719Z,-1.27
2019-01-25T11:49:24.752Z,-1.30
2019-01-25T11:51:55.380Z,-1.32
2019-01-25T11:54:36.816Z,-1.46
2019-01-25T11:57:07.482Z,-1.39
2019-01-25T11:59:38.061Z,-1.41
2019-01-25T12:02:10.049Z,-1.33
2019-01-25T12:04:43.927Z,-1.33
2019-01-25T12:07:17.702Z,-1.18
2019-01-25T12:09:50.208Z,-1.20
2019-01-25T12:12:21.577Z,-1.09
2019-01-25T12:14:51.890Z,-1.02
2019-01-25T12:17:23.083Z,-1.07
2019-01-25T12:19:54.753Z,-1.10
2019-01-25T12:22:25.289Z,-1.14
2019-01-25T12:24:55.710Z,-1.18
2019-01-25T12:27:26.198Z,-1.09
2019-01-25T12:29:56.809Z,-0.98
2019-01-25T12:32:28.175Z,-0.90
2019-01-25T12:34:58.436Z,-0.96
2019-01-25T12:37:28.885Z,-1.02
2019-01-25T12:40:00.221Z,-1.26
2019-01-25T12:42:30.464Z,-1.30
2019-01-25T12:45:00.819Z,-1.43
2019-01-25T12:47:31.018Z,-1.49
2019-01-25T12:50:01.298Z,-1.60
2019-01-25T12:52:31.575Z,-1.60
2019-01-25T12:55:01.904Z,-1.59
2019-01-25T12:57:32.317Z,-1.59
2019-01-25T13:00:03.011Z,-1.56
2019-01-25T13:02:33.294Z,-1.54
2019-01-25T13:05:03.531Z,-1.46
2019-01-25T13:07:33.837Z,-1.38
2019-01-25T13:10:07.118Z,-1.36
2019-01-25T13:12:37.736Z,-1.32
2019-01-25T13:15:09.318Z,-1.29
2019-01-25T13:17:40.486Z,-1.28
2019-01-25T13:20:16.826Z,-1.41
2019-01-25T13:22:47.073Z,-1.50
2019-01-25T13:25:17.462Z,-1.58
2019-01-25T13:27:47.850Z,-1.65
2019-01-25T13:30:26.268Z,-1.71
2019-01-25T13:32:56.971Z,-1.76
2019-01-25T13:35:27.279Z,-1.69
2019-01-25T13:37:57.829Z,-1.58
2019-01-25T13:40:28.197Z,-1.56
2019-01-25T13:42:58.521Z,-1.55
2019-01-25T13:45:28.758Z,-1.53
2019-01-25T13:47:59.126Z,-1.52
2019-01-25T13:50:29.475Z,-1.51
2019-01-25T13:53:00.874Z,-1.48
2019-01-25T13:55:31.359Z,-1.51
2019-01-25T13:58:01.713Z,-1.50
2019-01-25T14:00:33.508Z,-1.51
2019-01-25T14:03:03.918Z,-1.55
2019-01-25T14:05:34.143Z,-1.48
2019-01-25T14:08:04.521Z,-1.49
2019-01-25T14:10:35.719Z,-1.58
2019-01-25T14:13:06.596Z,-1.61
2019-01-25T14:15:36.923Z,-1.58
2019-01-25T14:18:07.354Z,-1.58
2019-01-25T14:20:37.908Z,-1.60
2019-01-25T14:23:08.526Z,-1.54
2019-01-25T14:25:39.092Z,-1.51
2019-01-25T14:28:10.692Z,-1.55
2019-01-25T14:30:42.552Z,-1.58
2019-01-25T14:33:12.906Z,-1.63
2019-01-25T14:35:43.225Z,-1.66
2019-01-25T14:38:15.486Z,-1.63
2019-01-25T14:40:45.719Z,-1.62
2019-01-25T14:43:15.961Z,-1.65
2019-01-25T14:45:46.456Z,-1.56
2019-01-25T14:48:17.051Z,-1.53
2019-01-25T14:50:48.653Z,-1.62
2019-01-25T14:53:18.859Z,-1.60
2019-01-25T14:55:49.058Z,-1.68
2019-01-25T14:58:19.257Z,-1.69
2019-01-25T15:00:49.502Z,-1.69
2019-01-25T15:03:19.721Z,-1.75
2019-01-25T15:05:49.960Z,-1.75
2019-01-25T15:08:20.362Z,-1.71
2019-01-25T15:10:51.178Z,-1.66
2019-01-25T15:13:21.448Z,-1.57
2019-01-25T15:15:51.706Z,-1.52
2019-01-25T15:18:22.147Z,-1.50
2019-01-25T15:20:52.786Z,-1.47
2019-01-25T15:23:23.282Z,-1.45
2019-01-25T15:25:53.498Z,-1.48
2019-01-25T15:28:23.686Z,-1.54
2019-01-25T15:30:54.255Z,-1.66
2019-01-25T15:33:26.795Z,-1.56
2019-01-25T15:35:57.495Z,-1.52
2019-01-25T15:38:27.744Z,-1.50
2019-01-25T15:40:58.296Z,-1.43
2019-01-25T15:43:28.620Z,-1.45
2019-01-25T15:45:58.813Z,-1.54
2019-01-25T15:48:29.294Z,-1.55
2019-01-25T15:50:59.619Z,-1.52
2019-01-25T15:53:29.889Z,-1.47
2019-01-25T15:56:00.230Z,-1.45
2019-01-25T15:58:30.593Z,-1.39
2019-01-25T16:01:01.122Z,-1.38
2019-01-25T16:03:31.448Z,-1.42
2019-01-25T16:06:02.002Z,-1.45
2019-01-25T16:08:32.304Z,-1.51
2019-01-25T16:11:02.779Z,-1.44
2019-01-25T16:13:33.052Z,-1.46
2019-01-25T16:16:03.757Z,-1.55
2019-01-25T16:18:36.551Z,-1.58
2019-01-25T16:21:06.953Z,-1.57
2019-01-25T16:23:37.220Z,-1.57
2019-01-25T16:26:07.595Z,-1.57
2019-01-25T16:28:40.252Z,-1.53
2019-01-25T16:31:10.662Z,-1.49
2019-01-25T16:33:41.178Z,-1.45
2019-01-25T16:36:11.662Z,-1.47
2019-01-25T16:38:42.026Z,-1.55
2019-01-25T16:41:12.384Z,-1.50
2019-01-25T16:43:42.836Z,-1.46
2019-01-25T16:46:13.425Z,-1.43
2019-01-25T16:48:43.713Z,-1.40
2019-01-25T16:51:14.257Z,-1.44
2019-01-25T16:53:44.463Z,-1.48
2019-01-25T16:56:20.757Z,-1.49
2019-01-25T16:58:51.031Z,-1.46
2019-01-25T17:01:22.194Z,-1.43
2019-01-25T17:03:54.172Z,-1.40
2019-01-25T17:06:25.391Z,-1.41
2019-01-25T17:08:58.929Z,-1.43
2019-01-25T17:11:30.367Z,-1.42
2019-01-25T17:14:00.630Z,-1.41
2019-01-25T17:16:30.874Z,-1.47
2019-01-25T17:19:02.502Z,-1.43
2019-01-25T17:21:33.169Z,-1.53
2019-01-25T17:24:03.756Z,-1.47
2019-01-25T17:26:40.117Z,-1.41
2019-01-25T17:29:12.643Z,-1.48
2019-01-25T17:31:42.988Z,-1.44
2019-01-25T17:34:13.477Z,-1.49
2019-01-25T17:36:44.015Z,-1.53
2019-01-25T17:39:17.133Z,-1.59
2019-01-25T17:41:47.435Z,-1.64
2019-01-25T17:44:21.165Z,-1.58
2019-01-25T17:46:51.743Z,-1.64
2019-01-25T17:49:24.008Z,-1.76
2019-01-25T17:51:54.546Z,-1.82
2019-01-25T17:54:26.499Z,-1.93
2019-01-25T17:56:57.193Z,-1.89
2019-01-25T17:59:31.904Z,-1.92
2019-01-25T18:02:04.754Z,-1.98
2019-01-25T18:04:35.491Z,-2.04
2019-01-25T18:07:08.565Z,-2.08
2019-01-25T18:09:40.626Z,-2.13
2019-01-25T18:12:10.866Z,-2.13
2019-01-25T18:14:50.595Z,-2.10
2019-01-25T18:17:24.084Z,-2.07
2019-01-25T18:19:56.114Z,-2.13
2019-01-25T18:22:26.765Z,-2.24
2019-01-25T18:24:57.376Z,-2.33
2019-01-25T18:27:27.756Z,-2.38
2019-01-25T18:30:00.354Z,-2.45
2019-01-25T18:32:30.560Z,-2.48
2019-01-25T18:35:05.031Z,-2.54
2019-01-25T18:37:35.249Z,-2.50
2019-01-25T18:40:07.616Z,-2.57
2019-01-25T18:42:38.162Z,-2.65
2019-01-25T18:45:09.082Z,-2.68
2019-01-25T18:47:39.338Z,-2.80
2019-01-25T18:50:11.587Z,-2.79
2019-01-25T18:52:43.462Z,-2.73
2019-01-25T18:55:16.581Z,-2.71
2019-01-25T18:57:47.559Z,-2.79
2019-01-25T19:00:19.519Z,-2.83
2019-01-25T19:02:49.974Z,-2.78
2019-01-25T19:05:20.405Z,-2.87
2019-01-25T19:07:52.001Z,-2.83
2019-01-25T19:10:23.990Z,-2.75
2019-01-25T19:12:54.502Z,-2.70
2019-01-25T19:15:27.330Z,-2.69
2019-01-25T19:17:58.103Z,-2.67
2019-01-25T19:20:28.482Z,-2.66
2019-01-25T19:22:58.941Z,-2.67
2019-01-25T19:25:29.837Z,-2.69
2019-01-25T19:28:00.291Z,-2.67
2019-01-25T19:30:36.105Z,-2.67
2019-01-25T19:33:06.662Z,-2.67
2019-01-25T19:35:36.995Z,-2.68
2019-01-25T19:38:08.416Z,-2.77
2019-01-25T19:40:40.533Z,-2.73
2019-01-25T19:43:11.548Z,-2.76
2019-01-25T19:45:41.899Z,-2.77
2019-01-25T19:48:12.387Z,-2.78
2019-01-25T19:50:42.808Z,-2.78
2019-01-25T19:53:13.380Z,-2.76
2019-01-25T19:55:45.110Z,-2.77
2019-01-25T19:58:17.414Z,-2.77
2019-01-25T20:00:49.283Z,-2.84
2019-01-25T20:03:20.811Z,-2.84
2019-01-25T20:05:51.660Z,-2.84
2019-01-25T20:08:21.868Z,-2.92
2019-01-25T20:10:52.801Z,-2.93
2019-01-25T20:13:23.519Z,-2.94
2019-01-25T20:15:53.837Z,-3.04
2019-01-25T20:18:25.107Z,-3.01
2019-01-25T20:20:55.459Z,-2.99
2019-01-25T20:23:25.714Z,-2.92
2019-01-25T20:25:56.062Z,-3.02
2019-01-25T20:28:26.432Z,-3.05
2019-01-25T20:30:56.844Z,-2.96
2019-01-25T20:33:31.722Z,-3.01
2019-01-25T20:36:02.152Z,-2.95
2019-01-25T20:38:32.472Z,-3.06
2019-01-25T20:41:04.360Z,-3.12
2019-01-25T20:43:37.001Z,-3.10
2019-01-25T20:46:07.280Z,-3.20
2019-01-25T20:48:38.029Z,-3.20
2019-01-25T20:51:10.839Z,-3.10
2019-01-25T20:53:41.502Z,-3.10
2019-01-25T20:56:15.807Z,-3.09
2019-01-25T20:58:46.294Z,-3.04
2019-01-25T21:01:17.847Z,-2.95
2019-01-25T21:03:48.351Z,-2.92
2019-01-25T21:06:19.415Z,-2.94
2019-01-25T21:08:49.858Z,-2.98
2019-01-25T21:11:21.030Z,-3.06
2019-01-25T21:13:51.503Z,-3.03
2019-01-25T21:16:22.398Z,-3.00
2019-01-25T21:18:53.300Z,-2.96
2019-01-25T21:21:23.859Z,-2.93
2019-01-25T21:23:55.955Z,-2.91
2019-01-25T21:26:26.424Z,-2.94
2019-01-25T21:28:57.319Z,-2.94
2019-01-25T21:31:27.759Z,-2.94
2019-01-25T21:33:58.940Z,-2.87
2019-01-25T21:36:29.546Z,-2.89
2019-01-25T21:39:01.220Z,-2.87
2019-01-25T21:41:31.698Z,-2.83
2019-01-25T21:44:02.692Z,-2.82
2019-01-25T21:46:40.090Z,-2.79
2019-01-25T21:49:05.487Z,-2.78
2019-01-25T21:51:37.024Z,-2.78
2019-01-25T21:54:07.571Z,-2.76
2019-01-25T21:56:38.414Z,-2.69
2019-01-25T21:59:08.750Z,-2.66
2019-01-25T22:01:39.067Z,-2.66
2019-01-25T22:04:09.358Z,-2.62
2019-01-25T22:06:39.990Z,-2.58
2019-01-25T22:09:11.632Z,-2.57
2019-01-25T22:11:41.965Z,-2.59
2019-01-25T22:14:12.368Z,-2.59
2019-01-25T22:16:43.111Z,-2.62
2019-01-25T22:19:14.041Z,-2.63
2019-01-25T22:21:44.661Z,-2.62
2019-01-25T22:24:15.463Z,-2.61
2019-01-25T22:26:46.108Z,-2.54
2019-01-25T22:29:16.865Z,-2.57
2019-01-25T22:31:47.511Z,-2.52
2019-01-25T22:34:18.603Z,-2.46
2019-01-25T22:36:49.264Z,-2.47
2019-01-25T22:39:19.642Z,-2.40
2019-01-25T22:41:52.113Z,-2.37
2019-01-25T22:44:22.624Z,-2.36
2019-01-25T22:46:53.148Z,-2.39
2019-01-25T22:49:24.014Z,-2.39
2019-01-25T22:51:54.537Z,-2.39
2019-01-25T22:54:25.348Z,-2.38
2019-01-25T22:56:57.855Z,-2.39
2019-01-25T22:59:28.813Z,-2.33
2019-01-25T23:01:59.176Z,-2.36
2019-01-25T23:05:11.479Z,-2.40
2019-01-25T23:07:42.011Z,-2.37
2019-01-25T23:10:19.913Z,-2.36
2019-01-25T23:12:50.449Z,-2.35
2019-01-25T23:15:20.811Z,-2.39
2019-01-25T23:17:51.107Z,-2.32
2019-01-25T23:20:21.548Z,-2.26
2019-01-25T23:22:51.832Z,-2.21
2019-01-25T23:25:22.569Z,-2.16
2019-01-25T23:27:53.324Z,-2.11
2019-01-25T23:30:23.836Z,-2.08
2019-01-25T23:32:54.155Z,-2.09
2019-01-25T23:35:24.479Z,-2.05
2019-01-25T23:37:54.808Z,-2.05
2019-01-25T23:40:25.191Z,-2.05
2019-01-25T23:42:55.466Z,-2.01
2019-01-25T23:45:25.790Z,-1.97
2019-01-25T23:47:56.306Z,-1.83
2019-01-25T23:50:26.667Z,-1.80
2019-01-25T23:52:56.965Z,-1.86
2019-01-25T23:55:27.585Z,-1.78
2019-01-25T23:57:57.964Z,-1.71
